Time;durP1;ratioP1;P1;durP2;ratioP2;P2;SDS_P1;SDS_P2;PMS_P1;PMS_P2;Temp;Humidity;BMP_temperature;BMP_pressure;BME280_temperature;BME280_humidity;BME280_pressure;Samples;Min_cycle;Max_cycle;Signal;HPM_P1;HPM_P2
2022/04/22 00:01:16;;;;;;;23.15;20.65;;;;;;;;;;5087054;28;24428;-51
2022/04/22 00:03:41;;;;;;;22.20;19.80;;;;;;;;;;5085800;28;24394;-50
2022/04/22 00:06:07;;;;;;;21.87;19.67;;;;;;;;;;5087192;28;25066;-51
2022/04/22 00:08:32;;;;;;;22.17;19.77;;;;;;;;;;5086820;28;24412;-50
2022/04/22 00:13:41;;;;;;;21.65;19.45;;;;;;;;;;5086552;28;24428;-50
2022/04/22 00:16:07;;;;;;;24.50;21.58;;;;;;;;;;5087235;28;24390;-51
2022/04/22 00:18:32;;;;;;;23.33;20.57;;;;;;;;;;5086700;28;24409;-51
2022/04/22 00:20:57;;;;;;;24.50;21.90;;;;;;;;;;5084610;28;24908;-50
2022/04/22 00:23:22;;;;;;;22.38;20.02;;;;;;;;;;5066423;28;24486;-51
2022/04/22 00:25:48;;;;;;;23.20;20.70;;;;;;;;;;5066551;28;24458;-51
2022/04/22 00:28:13;;;;;;;26.77;23.50;;;;;;;;;;5063940;28;24394;-50
2022/04/22 00:30:38;;;;;;;24.03;21.53;;;;;;;;;;5066704;28;24843;-50
2022/04/22 00:33:04;;;;;;;26.23;23.50;;;;;;;;;;5066181;28;25086;-50
2022/04/22 00:35:29;;;;;;;24.70;22.10;;;;;;;;;;5066589;28;24597;-51
2022/04/22 00:37:54;;;;;;;27.47;24.57;;;;;;;;;;5066196;28;24492;-51
2022/04/22 00:40:19;;;;;;;26.33;23.50;;;;;;;;;;5066306;28;24379;-52
2022/04/22 00:42:45;;;;;;;26.93;24.03;;;;;;;;;;5066145;28;24536;-51
2022/04/22 00:45:11;;;;;;;25.25;22.55;;;;;;;;;;5066424;28;24517;-51
2022/04/22 00:47:36;;;;;;;27.00;24.10;;;;;;;;;;5064008;28;24474;-51
2022/04/22 00:50:02;;;;;;;25.42;22.65;;;;;;;;;;5066324;28;24545;-50
2022/04/22 00:52:27;;;;;;;26.43;23.20;;;;;;;;;;5066190;28;24453;-50
2022/04/22 00:54:53;;;;;;;26.73;23.80;;;;;;;;;;5066199;28;24406;-49
2022/04/22 00:57:18;;;;;;;26.47;23.67;;;;;;;;;;5065834;28;24952;-50
2022/04/22 00:59:43;;;;;;;30.97;26.83;;;;;;;;;;5065876;28;24379;-50
2022/04/22 01:02:09;;;;;;;26.58;23.77;;;;;;;;;;5066145;28;24398;-50
2022/04/22 01:10:02;;;;;;;27.90;24.90;;;;;;;;;;5066253;28;24377;-49
2022/04/22 01:12:30;;;;;;;29.92;26.30;;;;;;;;;;5066067;28;24517;-49
2022/04/22 01:14:56;;;;;;;29.10;25.40;;;;;;;;;;5068268;28;24448;-49
2022/04/22 01:17:21;;;;;;;27.70;24.65;;;;;;;;;;5069891;28;24585;-50
2022/04/22 01:19:47;;;;;;;26.90;24.10;;;;;;;;;;5069305;28;24972;-50
2022/04/22 01:22:13;;;;;;;28.10;23.67;;;;;;;;;;5082153;28;24409;-50
2022/04/22 01:24:38;;;;;;;26.85;23.95;;;;;;;;;;5090213;28;24406;-49
2022/04/22 01:27:03;;;;;;;29.27;25.07;;;;;;;;;;5089480;28;24398;-50
2022/04/22 01:29:28;;;;;;;27.07;24.17;;;;;;;;;;5087649;28;24757;-49
2022/04/22 01:31:53;;;;;;;29.48;25.05;;;;;;;;;;5089969;28;24443;-49
2022/04/22 01:34:18;;;;;;;28.10;24.77;;;;;;;;;;5089531;28;24562;-49
2022/04/22 01:36:44;;;;;;;27.53;23.97;;;;;;;;;;5089399;28;24898;-49
2022/04/22 01:39:09;;;;;;;30.73;26.07;;;;;;;;;;5089795;28;24466;-49
2022/04/22 01:41:34;;;;;;;29.15;24.63;;;;;;;;;;5089371;28;24435;-49
2022/04/22 01:43:59;;;;;;;29.33;25.75;;;;;;;;;;5089595;28;25075;-50
2022/04/22 01:46:24;;;;;;;29.17;25.90;;;;;;;;;;5089724;28;24413;-49
2022/04/22 01:48:49;;;;;;;27.87;24.87;;;;;;;;;;5088980;28;24784;-50
2022/04/22 01:51:15;;;;;;;29.50;26.27;;;;;;;;;;5089140;28;24394;-51
2022/04/22 01:53:40;;;;;;;30.20;26.10;;;;;;;;;;5089127;28;24507;-50
2022/04/22 01:56:05;;;;;;;30.23;26.03;;;;;;;;;;5089029;28;24535;-50
2022/04/22 01:58:30;;;;;;;30.25;25.20;;;;;;;;;;5088600;28;24398;-49
2022/04/22 02:00:55;;;;;;;31.10;27.38;;;;;;;;;;5088907;28;24992;-49
2022/04/22 02:03:20;;;;;;;33.70;27.73;;;;;;;;;;5088788;28;24409;-50
2022/04/22 02:05:46;;;;;;;34.72;28.70;;;;;;;;;;5088764;28;24397;-49
2022/04/22 02:08:12;;;;;;;29.73;25.90;;;;;;;;;;5088668;28;24798;-49
2022/04/22 02:10:37;;;;;;;32.85;28.27;;;;;;;;;;5089246;28;24429;-49
2022/04/22 02:13:03;;;;;;;32.63;27.60;;;;;;;;;;5088435;28;24453;-51
2022/04/22 02:15:28;;;;;;;30.83;27.20;;;;;;;;;;5089008;28;24386;-49
2022/04/22 02:17:53;;;;;;;33.03;27.93;;;;;;;;;;5088319;28;24473;-49
2022/04/22 02:20:18;;;;;;;32.50;27.63;;;;;;;;;;5088498;28;24394;-50
2022/04/22 02:22:43;;;;;;;32.00;27.60;;;;;;;;;;5071144;28;25009;-49
2022/04/22 02:25:09;;;;;;;32.33;27.42;;;;;;;;;;5067837;28;25116;-49
2022/04/22 02:30:18;;;;;;;34.70;28.95;;;;;;;;;;5068046;28;25047;-50
2022/04/22 02:32:43;;;;;;;36.57;30.60;;;;;;;;;;5067911;28;24506;-49
2022/04/22 02:35:08;;;;;;;33.67;29.30;;;;;;;;;;5067979;28;24406;-49
2022/04/22 02:37:34;;;;;;;35.63;29.33;;;;;;;;;;5068098;28;24391;-49
2022/04/22 02:39:59;;;;;;;35.10;29.40;;;;;;;;;;5067923;28;24994;-50
2022/04/22 02:47:52;;;;;;;35.53;28.70;;;;;;;;;;5067687;28;24379;-50
2022/04/22 02:50:17;;;;;;;35.05;28.00;;;;;;;;;;5068016;28;24407;-50
2022/04/22 02:52:42;;;;;;;33.55;28.48;;;;;;;;;;5067970;28;24414;-49
2022/04/22 02:55:07;;;;;;;34.65;28.70;;;;;;;;;;5067702;28;24387;-49
2022/04/22 02:57:33;;;;;;;32.90;28.27;;;;;;;;;;5067369;28;24414;-49
2022/04/22 02:59:58;;;;;;;34.20;28.63;;;;;;;;;;5067269;28;24406;-49
2022/04/22 03:02:23;;;;;;;32.37;27.93;;;;;;;;;;5067745;28;24414;-50
2022/04/22 03:04:48;;;;;;;31.27;27.03;;;;;;;;;;5067569;28;24486;-49
2022/04/22 03:07:14;;;;;;;34.95;28.02;;;;;;;;;;5067511;28;24478;-50
2022/04/22 03:09:39;;;;;;;32.97;27.83;;;;;;;;;;5067643;28;24440;-50
2022/04/22 03:12:04;;;;;;;35.70;28.80;;;;;;;;;;5067480;28;24600;-49
2022/04/22 03:14:29;;;;;;;35.47;29.60;;;;;;;;;;5067553;28;24399;-50
2022/04/22 03:16:55;;;;;;;34.58;28.60;;;;;;;;;;5067249;28;24472;-50
2022/04/22 03:19:20;;;;;;;34.60;28.85;;;;;;;;;;5066844;28;24396;-50
2022/04/22 03:21:45;;;;;;;33.63;27.38;;;;;;;;;;5076301;28;24932;-50
2022/04/22 03:24:11;;;;;;;35.67;27.70;;;;;;;;;;5087293;28;24418;-49
2022/04/22 03:26:36;;;;;;;34.63;29.17;;;;;;;;;;5087485;28;24397;-50
2022/04/22 03:29:01;;;;;;;35.25;28.05;;;;;;;;;;5086697;28;24413;-50
2022/04/22 03:31:26;;;;;;;38.10;29.07;;;;;;;;;;5087343;28;24388;-50
2022/04/22 03:33:51;;;;;;;36.35;28.40;;;;;;;;;;5087179;28;24763;-50
2022/04/22 03:36:17;;;;;;;35.28;27.98;;;;;;;;;;5087419;28;24397;-50
2022/04/22 03:38:43;;;;;;;35.73;28.00;;;;;;;;;;5086802;28;24410;-49
2022/04/22 03:41:08;;;;;;;35.35;27.70;;;;;;;;;;5086997;28;24396;-49
2022/04/22 03:43:33;;;;;;;34.50;27.23;;;;;;;;;;5087108;28;24473;-49
2022/04/22 03:45:59;;;;;;;32.72;27.40;;;;;;;;;;5087068;28;24447;-49
2022/04/22 03:48:24;;;;;;;33.43;27.23;;;;;;;;;;5086568;28;24414;-50
2022/04/22 03:50:49;;;;;;;35.73;28.67;;;;;;;;;;5087474;28;24517;-52
2022/04/22 03:53:14;;;;;;;37.93;29.53;;;;;;;;;;5086821;28;24422;-50
2022/04/22 03:55:40;;;;;;;34.17;26.80;;;;;;;;;;5087481;28;24509;-49
2022/04/22 03:58:12;;;;;;;32.55;26.15;;;;;;;;;;5086784;28;24387;-50
2022/04/22 04:00:39;;;;;;;29.15;24.05;;;;;;;;;;5086976;28;24402;-50
2022/04/22 04:03:05;;;;;;;31.58;25.23;;;;;;;;;;5086587;28;24806;-50
2022/04/22 04:05:31;;;;;;;31.42;24.95;;;;;;;;;;5087521;28;24399;-50
2022/04/22 04:07:56;;;;;;;29.00;24.67;;;;;;;;;;5086342;28;24916;-49
2022/04/22 04:15:58;;;;;;;23.42;20.92;;;;;;;;;;5086932;28;24405;-49
2022/04/22 04:18:23;;;;;;;22.63;20.23;;;;;;;;;;5086898;28;24509;-50
2022/04/22 04:23:33;;;;;;;21.10;18.90;;;;;;;;;;5066224;28;24464;-49
2022/04/22 04:25:59;;;;;;;20.52;18.48;;;;;;;;;;5066719;28;24928;-49
2022/04/22 04:28:27;;;;;;;19.88;17.88;;;;;;;;;;5065966;28;24418;-49
2022/04/22 04:30:52;;;;;;;19.45;17.55;;;;;;;;;;5066182;28;24751;-50
2022/04/22 04:33:17;;;;;;;18.17;16.37;;;;;;;;;;5066543;28;24908;-50
2022/04/22 04:35:46;;;;;;;18.88;17.08;;;;;;;;;;5066231;28;24933;-49
2022/04/22 04:38:12;;;;;;;19.95;17.95;;;;;;;;;;5065697;28;24472;-49
2022/04/22 04:40:37;;;;;;;19.20;17.20;;;;;;;;;;5066233;28;24857;-50
2022/04/22 04:43:02;;;;;;;19.33;17.50;;;;;;;;;;5066032;28;24394;-49
2022/04/22 04:45:28;;;;;;;19.37;17.57;;;;;;;;;;5066821;28;24960;-49
2022/04/22 04:47:53;;;;;;;19.83;17.93;;;;;;;;;;5066335;28;24453;-49
2022/04/22 04:50:18;;;;;;;19.07;17.17;;;;;;;;;;5068679;28;24924;-50
2022/04/22 04:52:43;;;;;;;18.20;16.40;;;;;;;;;;5069800;28;24755;-49
2022/04/22 04:55:11;;;;;;;25.15;20.40;;;;;;;;;;5070179;28;24432;-50
2022/04/22 04:57:36;;;;;;;18.30;16.60;;;;;;;;;;5070178;28;24390;-50
2022/04/22 05:00:05;;;;;;;17.30;15.70;;;;;;;;;;5070085;28;24978;-49
2022/04/22 05:02:30;;;;;;;19.10;17.13;;;;;;;;;;5070182;28;24394;-49
2022/04/22 05:04:55;;;;;;;17.10;15.50;;;;;;;;;;5069909;28;24909;-49
2022/04/22 05:07:20;;;;;;;17.73;15.98;;;;;;;;;;5069428;28;24398;-49
2022/04/22 05:09:45;;;;;;;18.92;17.02;;;;;;;;;;5069485;28;24426;-50
2022/04/22 05:12:11;;;;;;;17.27;15.67;;;;;;;;;;5069569;28;24788;-49
2022/04/22 05:14:36;;;;;;;18.65;16.85;;;;;;;;;;5070214;28;24401;-50
2022/04/22 05:17:01;;;;;;;17.83;16.13;;;;;;;;;;5069744;28;25271;-49
2022/04/22 05:19:27;;;;;;;18.40;16.70;;;;;;;;;;5069366;28;24395;-50
2022/04/22 05:21:52;;;;;;;18.27;16.48;;;;;;;;;;5086324;28;24420;-50
2022/04/22 05:24:17;;;;;;;21.47;19.30;;;;;;;;;;5089709;28;24531;-49
2022/04/22 05:26:42;;;;;;;20.00;18.03;;;;;;;;;;5089839;28;24397;-49
2022/04/22 05:32:36;;;;;;;19.48;17.58;;;;;;;;;;5089538;28;24487;-49
2022/04/22 05:34:37;;;;;;;17.15;15.45;;;;;;;;;;5089798;28;24540;-49
2022/04/22 05:37:02;;;;;;;17.80;16.00;;;;;;;;;;5089573;28;24702;-50
2022/04/22 05:39:27;;;;;;;19.65;16.52;;;;;;;;;;5088760;28;24430;-50
2022/04/22 05:41:53;;;;;;;18.88;16.98;;;;;;;;;;5089755;28;24737;-50
2022/04/22 05:44:18;;;;;;;19.25;17.25;;;;;;;;;;5089007;28;24398;-49
2022/04/22 05:46:43;;;;;;;18.75;16.75;;;;;;;;;;5089467;28;24417;-49
2022/04/22 05:49:08;;;;;;;19.73;17.40;;;;;;;;;;5089233;28;24405;-49
2022/04/22 05:51:33;;;;;;;18.63;16.63;;;;;;;;;;5089519;28;24465;-49
2022/04/22 05:53:58;;;;;;;17.40;15.55;;;;;;;;;;5089315;28;24479;-50
2022/04/22 05:56:23;;;;;;;17.85;15.60;;;;;;;;;;5089127;28;24378;-50
2022/04/22 05:58:49;;;;;;;17.07;15.27;;;;;;;;;;5089002;28;24434;-49
2022/04/22 06:01:15;;;;;;;18.13;16.23;;;;;;;;;;5089030;28;24397;-49
2022/04/22 06:03:40;;;;;;;17.73;15.93;;;;;;;;;;5088932;28;25174;-49
2022/04/22 06:06:05;;;;;;;18.00;16.10;;;;;;;;;;5089366;28;24424;-50
2022/04/22 06:11:14;;;;;;;19.00;17.00;;;;;;;;;;5089303;28;24377;-50
2022/04/22 06:13:39;;;;;;;19.67;17.67;;;;;;;;;;5088731;28;24414;-50
2022/04/22 06:16:04;;;;;;;20.27;17.83;;;;;;;;;;5088765;28;24383;-50
2022/04/22 06:18:30;;;;;;;18.83;16.83;;;;;;;;;;5089075;28;24478;-50
2022/04/22 06:20:55;;;;;;;21.30;19.00;;;;;;;;;;5080060;28;24766;-51
2022/04/22 06:23:20;;;;;;;22.33;19.48;;;;;;;;;;5068418;28;24427;-51
2022/04/22 06:25:45;;;;;;;21.20;18.90;;;;;;;;;;5068566;28;24415;-51
2022/04/22 06:28:11;;;;;;;23.92;20.33;;;;;;;;;;5068646;28;24456;-50
2022/04/22 06:30:36;;;;;;;24.90;20.77;;;;;;;;;;5068398;28;24928;-51
2022/04/22 06:33:03;;;;;;;26.95;23.10;;;;;;;;;;5068377;28;24533;-51
2022/04/22 06:35:28;;;;;;;25.13;21.70;;;;;;;;;;5068574;28;24430;-51
2022/04/22 06:37:54;;;;;;;26.33;22.30;;;;;;;;;;5068471;28;24994;-51
2022/04/22 06:45:48;;;;;;;25.50;22.67;;;;;;;;;;5068253;28;24405;-49
2022/04/22 06:48:14;;;;;;;25.67;22.87;;;;;;;;;;5068306;28;24403;-49
2022/04/22 06:50:39;;;;;;;26.23;22.10;;;;;;;;;;5067742;28;24908;-50
2022/04/22 06:53:05;;;;;;;25.83;22.47;;;;;;;;;;5067638;28;24407;-50
2022/04/22 06:55:30;;;;;;;24.27;21.10;;;;;;;;;;5067789;28;24807;-49
2022/04/22 06:57:56;;;;;;;25.80;22.57;;;;;;;;;;5067988;28;24391;-50
2022/04/22 07:00:21;;;;;;;24.58;21.98;;;;;;;;;;5067341;28;25028;-51
2022/04/22 07:02:47;;;;;;;26.20;22.90;;;;;;;;;;5067658;28;24483;-51
2022/04/22 07:05:12;;;;;;;24.60;22.00;;;;;;;;;;5068002;28;24422;-51
2022/04/22 07:07:38;;;;;;;24.15;21.55;;;;;;;;;;5067677;28;24387;-52
2022/04/22 07:10:03;;;;;;;26.07;23.00;;;;;;;;;;5067453;28;24501;-51
2022/04/22 07:12:30;;;;;;;27.90;24.40;;;;;;;;;;5066703;28;24445;-50
2022/04/22 07:15:03;;;;;;;26.15;23.38;;;;;;;;;;5067896;28;24406;-51
2022/04/22 07:17:32;;;;;;;26.65;23.05;;;;;;;;;;5067468;28;24418;-51
2022/04/22 07:19:58;;;;;;;24.15;21.50;;;;;;;;;;5068038;28;24397;-50
2022/04/22 07:22:23;;;;;;;28.90;25.27;;;;;;;;;;5086670;28;24402;-50
2022/04/22 07:24:48;;;;;;;24.63;21.65;;;;;;;;;;5088021;28;24492;-50
2022/04/22 07:27:15;;;;;;;25.53;22.80;;;;;;;;;;5087520;28;24402;-50
2022/04/22 07:29:41;;;;;;;25.10;22.38;;;;;;;;;;5087488;28;24536;-49
2022/04/22 07:32:07;;;;;;;27.70;24.65;;;;;;;;;;5087471;28;24926;-50
2022/04/22 07:34:32;;;;;;;25.80;23.00;;;;;;;;;;5087284;28;24524;-50
2022/04/22 07:36:57;;;;;;;32.27;26.47;;;;;;;;;;5087743;28;24804;-50
2022/04/22 07:39:23;;;;;;;29.43;25.27;;;;;;;;;;5087088;28;24417;-51
2022/04/22 07:41:49;;;;;;;26.93;23.50;;;;;;;;;;5087546;28;24489;-51
2022/04/22 07:47:02;;;;;;;26.87;23.30;;;;;;;;;;5087501;28;24397;-51
2022/04/22 07:49:29;;;;;;;26.73;23.70;;;;;;;;;;5087014;28;24410;-50
2022/04/22 07:51:54;;;;;;;27.15;23.20;;;;;;;;;;5087102;28;24393;-51
2022/04/22 07:54:19;;;;;;;29.90;26.10;;;;;;;;;;5087020;28;24995;-51
2022/04/22 07:56:44;;;;;;;29.05;25.15;;;;;;;;;;5087006;28;24474;-51
2022/04/22 07:59:10;;;;;;;31.40;27.03;;;;;;;;;;5087139;28;24520;-51
2022/04/22 08:01:35;;;;;;;28.75;23.90;;;;;;;;;;5086790;28;24394;-51
2022/04/22 08:04:01;;;;;;;29.23;24.13;;;;;;;;;;5086580;28;24399;-51
2022/04/22 08:06:27;;;;;;;29.80;25.37;;;;;;;;;;5087129;28;24919;-51
2022/04/22 08:08:52;;;;;;;30.90;24.80;;;;;;;;;;5086968;28;24393;-50
2022/04/22 08:11:19;;;;;;;28.50;24.17;;;;;;;;;;5087046;28;24877;-50
2022/04/22 08:13:45;;;;;;;27.35;24.30;;;;;;;;;;5086466;28;24420;-50
2022/04/22 08:16:10;;;;;;;28.77;24.00;;;;;;;;;;5086919;28;24394;-51
2022/04/22 08:18:36;;;;;;;28.40;24.25;;;;;;;;;;5086519;28;24919;-51
2022/04/22 08:21:02;;;;;;;27.23;24.30;;;;;;;;;;5077501;28;24488;-50
2022/04/22 08:23:27;;;;;;;27.77;23.70;;;;;;;;;;5066818;28;24582;-50
2022/04/22 08:25:52;;;;;;;28.83;25.65;;;;;;;;;;5070820;28;25137;-51
2022/04/22 08:28:17;;;;;;;29.80;25.60;;;;;;;;;;5070412;28;24407;-51
2022/04/22 08:30:43;;;;;;;25.65;22.92;;;;;;;;;;5070513;28;24394;-51
2022/04/22 08:33:08;;;;;;;27.50;24.20;;;;;;;;;;5070460;28;24485;-51
2022/04/22 08:35:35;;;;;;;26.33;23.53;;;;;;;;;;5070222;28;24382;-50
2022/04/22 08:38:01;;;;;;;25.85;23.05;;;;;;;;;;5070775;28;24398;-50
2022/04/22 08:40:27;;;;;;;25.90;23.00;;;;;;;;;;5069927;28;24395;-51
2022/04/22 08:42:52;;;;;;;27.03;23.17;;;;;;;;;;5070270;28;24828;-50
2022/04/22 08:45:19;;;;;;;26.25;22.05;;;;;;;;;;5070583;28;24527;-50
2022/04/22 08:50:29;;;;;;;32.08;28.52;;;;;;;;;;5069957;28;24424;-50
2022/04/22 08:52:56;;;;;;;27.10;23.88;;;;;;;;;;5070338;28;24423;-50
2022/04/22 08:55:22;;;;;;;26.35;23.45;;;;;;;;;;5069714;28;24465;-50
2022/04/22 08:57:48;;;;;;;29.17;25.93;;;;;;;;;;5070218;28;24502;-51
2022/04/22 09:00:14;;;;;;;28.67;25.58;;;;;;;;;;5069613;28;24850;-50
2022/04/22 09:02:40;;;;;;;26.15;23.10;;;;;;;;;;5069811;28;24950;-50
2022/04/22 09:05:07;;;;;;;27.27;24.37;;;;;;;;;;5070108;28;24387;-51
2022/04/22 09:07:32;;;;;;;29.92;26.73;;;;;;;;;;5069603;28;24952;-50
2022/04/22 09:09:57;;;;;;;25.10;22.40;;;;;;;;;;5070356;28;24395;-51
2022/04/22 09:12:26;;;;;;;26.00;23.30;;;;;;;;;;5069634;28;24410;-50
2022/04/22 09:14:52;;;;;;;24.33;21.73;;;;;;;;;;5070046;28;24394;-51
2022/04/22 09:17:21;;;;;;;23.38;20.88;;;;;;;;;;5070016;28;24394;-50
2022/04/22 09:19:46;;;;;;;25.40;22.50;;;;;;;;;;5069418;28;24994;-50
2022/04/22 09:22:17;;;;;;;27.90;25.00;;;;;;;;;;5088651;28;24463;-50
2022/04/22 09:24:46;;;;;;;24.10;21.67;;;;;;;;;;5089552;28;24431;-51
2022/04/22 09:27:13;;;;;;;28.65;25.65;;;;;;;;;;5089965;28;24476;-50
2022/04/22 09:29:56;;;;;;;25.30;22.70;;;;;;;;;;5089265;28;24426;-51
2022/04/22 09:32:25;;;;;;;26.45;23.65;;;;;;;;;;5089345;28;24378;-50
2022/04/22 09:34:51;;;;;;;26.00;23.30;;;;;;;;;;5089455;28;24399;-50
2022/04/22 09:42:53;;;;;;;23.80;21.33;;;;;;;;;;5089901;28;24499;-50
2022/04/22 09:45:18;;;;;;;24.30;21.80;;;;;;;;;;5089655;28;24390;-50
2022/04/22 09:47:43;;;;;;;25.30;22.80;;;;;;;;;;5089337;28;24425;-50
2022/04/22 09:50:12;;;;;;;23.40;21.00;;;;;;;;;;5089194;28;24542;-50
2022/04/22 09:52:39;;;;;;;23.83;21.52;;;;;;;;;;5089016;28;24398;-50
2022/04/22 09:55:08;;;;;;;24.77;22.08;;;;;;;;;;5089758;28;24504;-50
2022/04/22 09:57:52;;;;;;;24.35;21.85;;;;;;;;;;5089310;28;24374;-50
2022/04/22 10:00:27;;;;;;;23.15;20.85;;;;;;;;;;5088929;28;24482;-50
2022/04/22 10:02:53;;;;;;;24.80;22.20;;;;;;;;;;5089282;28;24452;-50
2022/04/22 10:05:26;;;;;;;23.93;21.53;;;;;;;;;;5089430;28;24452;-50
2022/04/22 10:07:53;;;;;;;22.98;20.67;;;;;;;;;;5089129;28;24401;-50
2022/04/22 10:10:24;;;;;;;25.25;22.75;;;;;;;;;;5089386;28;24442;-51
2022/04/22 10:12:52;;;;;;;27.30;24.48;;;;;;;;;;5088862;28;24963;-51
2022/04/22 10:15:19;;;;;;;26.50;23.80;;;;;;;;;;5089266;28;24556;-51
2022/04/22 10:17:46;;;;;;;27.35;24.65;;;;;;;;;;5088980;28;24383;-50
2022/04/22 10:20:11;;;;;;;25.83;23.33;;;;;;;;;;5086610;28;24413;-50
2022/04/22 10:22:37;;;;;;;24.67;22.17;;;;;;;;;;5068286;28;24391;-51
2022/04/22 10:25:04;;;;;;;25.67;22.97;;;;;;;;;;5068834;28;24399;-51
2022/04/22 10:27:31;;;;;;;25.85;23.33;;;;;;;;;;5068590;28;24769;-51
2022/04/22 10:29:59;;;;;;;23.10;20.80;;;;;;;;;;5068203;28;24769;-50
2022/04/22 10:32:24;;;;;;;23.35;21.05;;;;;;;;;;5068361;28;24823;-51
2022/04/22 10:34:55;;;;;;;24.33;21.83;;;;;;;;;;5068348;28;24952;-52
2022/04/22 10:37:23;;;;;;;23.60;21.30;;;;;;;;;;5068344;28;24552;-51
2022/04/22 10:39:50;;;;;;;23.00;20.80;;;;;;;;;;5068217;28;24437;-51
2022/04/22 10:42:15;;;;;;;26.20;23.60;;;;;;;;;;5068036;28;24394;-51
2022/04/22 10:47:39;;;;;;;27.92;25.23;;;;;;;;;;5067690;28;24429;-51
2022/04/22 10:50:22;;;;;;;26.63;24.02;;;;;;;;;;5068158;28;24386;-51
2022/04/22 10:53:16;;;;;;;25.92;23.33;;;;;;;;;;5067742;28;24418;-51
2022/04/22 10:55:41;;;;;;;28.20;25.45;;;;;;;;;;5054358;28;24411;-51
2022/04/22 10:58:13;;;;;;;29.40;26.50;;;;;;;;;;5068060;28;24390;-50
2022/04/22 11:00:41;;;;;;;28.73;25.88;;;;;;;;;;5067378;28;24395;-51
2022/04/22 11:03:10;;;;;;;29.83;26.93;;;;;;;;;;5067848;28;24552;-50
2022/04/22 11:05:36;;;;;;;28.90;25.90;;;;;;;;;;5067253;28;24516;-51
2022/04/22 11:08:03;;;;;;;30.87;27.67;;;;;;;;;;5067828;28;24474;-50
2022/04/22 11:10:49;;;;;;;28.65;25.95;;;;;;;;;;5067380;28;24399;-51
2022/04/22 11:13:33;;;;;;;28.20;25.50;;;;;;;;;;5067505;28;24774;-50
2022/04/22 11:16:05;;;;;;;28.02;25.40;;;;;;;;;;5067506;28;24429;-51
2022/04/22 11:18:30;;;;;;;26.73;24.13;;;;;;;;;;5067365;28;24849;-51
2022/04/22 11:21:01;;;;;;;27.23;24.53;;;;;;;;;;5075377;28;24418;-51
2022/04/22 11:23:33;;;;;;;27.38;24.67;;;;;;;;;;5088100;28;24471;-50
2022/04/22 11:25:58;;;;;;;25.75;23.38;;;;;;;;;;5087631;28;24403;-51
2022/04/22 11:28:24;;;;;;;25.50;23.07;;;;;;;;;;5087457;28;24516;-51
2022/04/22 11:30:50;;;;;;;27.83;25.03;;;;;;;;;;5087665;28;24442;-50
2022/04/22 11:33:23;;;;;;;24.63;22.33;;;;;;;;;;5087898;28;24499;-50
2022/04/22 11:35:49;;;;;;;24.27;21.98;;;;;;;;;;5085888;28;21974;-51
2022/04/22 11:38:15;;;;;;;26.20;23.70;;;;;;;;;;5087569;28;25179;-50
2022/04/22 11:40:40;;;;;;;23.10;20.80;;;;;;;;;;5086885;28;24409;-51
2022/04/22 11:43:14;;;;;;;23.10;20.80;;;;;;;;;;5087210;28;24501;-50
2022/04/22 11:45:43;;;;;;;22.40;20.30;;;;;;;;;;5087314;28;24934;-51
2022/04/22 11:48:08;;;;;;;23.15;20.95;;;;;;;;;;5087403;28;24450;-52
2022/04/22 11:50:40;;;;;;;24.13;21.83;;;;;;;;;;5087302;28;24382;-51
2022/04/22 11:53:19;;;;;;;22.90;20.70;;;;;;;;;;5086468;28;24761;-51
2022/04/22 11:55:45;;;;;;;23.48;20.98;;;;;;;;;;5087326;28;24443;-51
2022/04/22 11:58:10;;;;;;;22.15;19.95;;;;;;;;;;5087055;28;24378;-51
2022/04/22 12:06:11;;;;;;;21.10;19.10;;;;;;;;;;5107876;28;24369;-50
2022/04/22 12:08:36;;;;;;;19.85;17.95;;;;;;;;;;5107252;28;24986;-52
2022/04/22 12:11:01;;;;;;;18.25;16.45;;;;;;;;;;5107172;28;24485;-51
2022/04/22 12:13:26;;;;;;;20.50;18.50;;;;;;;;;;5107088;28;24782;-50
2022/04/22 12:15:51;;;;;;;20.30;18.40;;;;;;;;;;5107179;28;24504;-51
2022/04/22 12:18:44;;;;;;;20.55;18.38;;;;;;;;;;5107430;28;24466;-50
2022/04/22 12:21:11;;;;;;;19.20;17.40;;;;;;;;;;5084785;28;24643;-51
2022/04/22 12:23:37;;;;;;;19.13;17.25;;;;;;;;;;5086729;28;24413;-51
2022/04/22 12:26:02;;;;;;;19.73;17.90;;;;;;;;;;5086638;28;24945;-50
2022/04/22 12:28:28;;;;;;;18.30;16.60;;;;;;;;;;5086720;28;24433;-51
2022/04/22 12:30:53;;;;;;;18.45;16.45;;;;;;;;;;5086573;28;24547;-50
2022/04/22 12:33:25;;;;;;;18.23;16.50;;;;;;;;;;5086129;28;25012;-51
2022/04/22 12:36:10;;;;;;;17.73;16.02;;;;;;;;;;5086469;28;24383;-51
2022/04/22 12:38:36;;;;;;;18.45;16.55;;;;;;;;;;5086806;28;24486;-50
2022/04/22 12:41:02;;;;;;;17.73;16.02;;;;;;;;;;5086798;28;24382;-50
2022/04/22 12:43:28;;;;;;;18.10;16.50;;;;;;;;;;5086679;28;24543;-57
2022/04/22 12:54:10;;;;;;;16.80;15.30;;;;;;;;;;5086405;28;24405;-50
2022/04/22 12:56:35;;;;;;;15.93;14.40;;;;;;;;;;5086659;28;24386;-50
2022/04/22 12:59:03;;;;;;;16.75;15.05;;;;;;;;;;5086369;28;24980;-51
2022/04/22 13:01:29;;;;;;;16.25;14.57;;;;;;;;;;5086548;28;24731;-50
2022/04/22 13:03:54;;;;;;;14.70;13.30;;;;;;;;;;5086305;28;24455;-50
2022/04/22 13:06:36;;;;;;;16.40;14.80;;;;;;;;;;5086563;28;24821;-50
2022/04/22 13:09:01;;;;;;;18.33;16.42;;;;;;;;;;5086308;28;24481;-50
2022/04/22 13:11:26;;;;;;;19.47;17.57;;;;;;;;;;5089505;28;24844;-51
2022/04/22 13:13:51;;;;;;;18.05;16.15;;;;;;;;;;5089924;28;25009;-50
2022/04/22 13:16:17;;;;;;;21.20;19.27;;;;;;;;;;5090072;28;24401;-51
2022/04/22 13:18:42;;;;;;;20.88;18.77;;;;;;;;;;5090115;28;24401;-51
2022/04/22 13:21:07;;;;;;;19.42;17.73;;;;;;;;;;5090021;28;24412;-51
2022/04/22 13:23:33;;;;;;;21.77;19.45;;;;;;;;;;5090217;28;24410;-51
2022/04/22 13:25:59;;;;;;;23.52;21.13;;;;;;;;;;5089985;28;24456;-50
2022/04/22 13:28:24;;;;;;;21.17;19.13;;;;;;;;;;5089709;28;24808;-50
2022/04/22 13:30:49;;;;;;;20.63;18.73;;;;;;;;;;5090030;28;24759;-52
2022/04/22 13:33:14;;;;;;;20.42;18.52;;;;;;;;;;5089524;28;24494;-51
2022/04/22 13:35:39;;;;;;;22.42;20.13;;;;;;;;;;5089803;28;24433;-52
2022/04/22 13:38:05;;;;;;;22.27;20.17;;;;;;;;;;5089798;28;24389;-50
2022/04/22 13:40:31;;;;;;;23.77;21.38;;;;;;;;;;5090151;28;24429;-50
2022/04/22 13:42:56;;;;;;;23.73;21.33;;;;;;;;;;5089773;28;24889;-50
2022/04/22 13:53:33;;;;;;;24.00;21.65;;;;;;;;;;5089239;28;24412;-51
2022/04/22 13:55:59;;;;;;;24.73;22.20;;;;;;;;;;5089450;28;24928;-50
2022/04/22 13:58:24;;;;;;;24.30;21.87;;;;;;;;;;5089277;28;24401;-50
2022/04/22 14:00:49;;;;;;;25.35;22.85;;;;;;;;;;5089480;28;24469;-50
2022/04/22 14:03:15;;;;;;;25.70;23.00;;;;;;;;;;5087996;28;24378;-50
2022/04/22 14:05:40;;;;;;;24.70;22.10;;;;;;;;;;5089289;28;24402;-51
2022/04/22 14:08:05;;;;;;;27.85;24.90;;;;;;;;;;5089184;28;24391;-51
2022/04/22 14:10:32;;;;;;;28.03;25.23;;;;;;;;;;5089199;28;24482;-51
2022/04/22 14:12:58;;;;;;;28.95;25.95;;;;;;;;;;5088698;28;24418;-50
2022/04/22 14:15:23;;;;;;;29.20;26.00;;;;;;;;;;5089248;28;24393;-50
2022/04/22 14:17:48;;;;;;;28.85;25.95;;;;;;;;;;5088951;28;24780;-50
2022/04/22 14:20:13;;;;;;;28.33;25.43;;;;;;;;;;5078711;28;24414;-51
2022/04/22 14:22:38;;;;;;;31.30;28.10;;;;;;;;;;5067272;28;24466;-51
2022/04/22 14:25:04;;;;;;;31.13;27.80;;;;;;;;;;5068458;28;24928;-50
2022/04/22 14:27:29;;;;;;;32.43;28.93;;;;;;;;;;5068503;28;24490;-50
2022/04/22 14:29:54;;;;;;;31.63;28.23;;;;;;;;;;5068172;28;24445;-51
2022/04/22 14:32:19;;;;;;;31.10;28.00;;;;;;;;;;5068554;28;24586;-51
2022/04/22 14:34:45;;;;;;;31.67;28.37;;;;;;;;;;5068159;28;24427;-51
2022/04/22 14:37:10;;;;;;;32.65;29.13;;;;;;;;;;5068339;28;24448;-50
2022/04/22 14:39:35;;;;;;;31.90;28.60;;;;;;;;;;5068214;28;24433;-50
2022/04/22 14:42:00;;;;;;;30.10;27.10;;;;;;;;;;5067725;28;25284;-48
2022/04/22 14:44:26;;;;;;;34.10;30.50;;;;;;;;;;5068152;28;24387;-49
2022/04/22 14:46:51;;;;;;;31.47;27.87;;;;;;;;;;5068185;28;24951;-50
2022/04/22 14:49:16;;;;;;;34.03;30.43;;;;;;;;;;5068154;28;24403;-49
2022/04/22 14:51:45;;;;;;;30.40;27.20;;;;;;;;;;5067874;28;24386;-51
2022/04/22 14:54:11;;;;;;;33.35;29.90;;;;;;;;;;5067220;28;24415;-49
2022/04/22 14:56:36;;;;;;;33.92;30.23;;;;;;;;;;5067571;28;24536;-49
2022/04/22 14:59:01;;;;;;;32.13;28.77;;;;;;;;;;5067574;28;24514;-50
2022/04/22 15:01:26;;;;;;;30.37;27.27;;;;;;;;;;5067752;28;24969;-49
2022/04/22 15:03:52;;;;;;;32.23;28.93;;;;;;;;;;5067880;28;24433;-49
2022/04/22 15:06:17;;;;;;;31.87;28.67;;;;;;;;;;5067828;28;24493;-49
2022/04/22 15:08:42;;;;;;;32.53;29.23;;;;;;;;;;5067487;28;24931;-49
2022/04/22 15:11:07;;;;;;;33.23;29.80;;;;;;;;;;5067379;28;24438;-50
2022/04/22 15:13:34;;;;;;;31.55;28.45;;;;;;;;;;5067224;28;25203;-51
2022/04/22 15:16:00;;;;;;;31.02;27.90;;;;;;;;;;5067582;28;24493;-51
2022/04/22 15:26:37;;;;;;;27.75;24.75;;;;;;;;;;5087784;28;24404;-51
2022/04/22 15:29:04;;;;;;;26.23;23.53;;;;;;;;;;5087442;28;25043;-51
2022/04/22 15:31:29;;;;;;;27.58;24.77;;;;;;;;;;5087991;28;24409;-50